Crab Orchard, KY

3:19 AM EDT on July 23, 2014 (GMT -0400)
London-Corbin / McKee (KLOZ) Elev 1211 ft | 37.09 °N, 84.08 °W | Change Station

Current weather conditions updated 26 minutes ago

Partly Cloudy
Partly Cloudy
73 °F
Feels Like 73 °F
N
0
Wind Variable Wind from North

Today is forecast to be nearly the same temperature as yesterday. Showers and thunderstorms late.

Today
High -- | Low -- °F
--% Chance of Precip.
Yesterday
High -- | Low -- °F
Precip. -- in
6:35 AM 8:53 PM
Waning Crescent, 12% visible
Pressure 30.05 in
Visibility 6.0 miles
Clouds Few 4200 ft
Dew Point 70 °F
Humidity 90%
Rainfall 0.00 in
Snow Depth Not available.
UV 0 out of 12
Pollen 4.10 out of 12
Air Quality Not available.
Flu Activity Not available.
METAR KLOZ 230653Z AUTO 00000KT 6SM BR FEW042 23/21 A3009 RMK AO2 SLP176 T02280211

More Conditions Fewer Conditions

Pressure 30.05 in
Visibility 6.0 miles
Clouds Few 4200 ft
Dew Point 70 °F
Humidity 90%
Rainfall 0.00 in
Snow Depth Not available.
UV 0 out of 12
Pollen 4.10 out of 12
Air Quality Not available.
Flu Activity Not available.
METAR KLOZ 230653Z AUTO 00000KT 6SM BR FEW042 23/21 A3009 RMK AO2 SLP176 T02280211

More Conditions Fewer Conditions

10-Day Weather Forecast

Almanac

Astronomy

Jul. 23, 2014 Rise Set
Actual Time 6:35 AM EDT 8:53 PM EDT
Civil Twilight 6:05 AM EDT 9:23 PM EDT
Nautical Twilight 5:28 AM EDT 9:59 PM EDT
Astronomical Twilight 4:48 AM EDT 10:39 PM EDT
Moon 3:52 AM EDT 6:22 PM EDT
Length of Visible Light 15h 17m
Length of Day
14h 18m
Tomorrow will be 1m 32s shorter.
Waning Crescent, 12% of the Moon is Illuminated
Today
Waning Crescent
Jul 26
New
Aug 3
First Quarter
Aug 10
Full
Aug 17
Last Quarter

Today's Extremes

State Highs State Lows

Community

WunderPhotos

Upload Photos

1,736,527 photos uploaded!

Nearby

Snow Depth

Station Depth Elevation
No new snow has been reported.

Earthquake Activity

City Distance Mag. Time & Date
No recent earthquake activity has been reported nearby.
Minimum magnitude displayed is 2.5.

Coastal Water Temperatures

Place Temperature
No Stations Reporting

Nearby Weather Stations

Station Location Temp. Heat Index Dew Point Humidity Wind Precip. Elev Updated Type
K. Bracketts Weather Station 39 N, Crab Orchard, KY 72.1 °F - 72 °F 99% North  at  0.0 mph 0.00 in / hr 952 ft 3:19 AM EDT Rapid Fire
Bratcher Lane, Berea, KY 73.9 °F 72 °F 71 °F 90% West  at  4.2 mph - / hr 1001 ft 3:09 AM EDT Normal
HALLS BACKYARD WEATHER, SCIENCE HILL, KY 72.8 °F 70 °F 70 °F 91% WNW  at  0.0 mph 0.00 in / hr 1076 ft 3:18 AM EDT Normal
Berwick Drive, Danville, KY 74.8 °F 75 °F 70 °F 85% West  at  0.0 mph 0.00 in / hr 980 ft 3:15 AM EDT Normal
RMR - Somerset, Ferguson, KY 72.4 °F - 72 °F 99% NE  at  0.0 mph 0.00 in / hr 909 ft 3:13 AM EDT Normal
City Hall, Richmond, KY 78.1 °F 81 °F 72 °F 82% SW  at  3.0 mph 0.00 in / hr 974 ft 3:18 AM EDT Rapid Fire

Show More Stations Show Fewer Stations